sensor_id;sensor_type;location;lat;lon;timestamp;temperature;humidity
736;DHT22;352;48.626;9.238;2022-12-29T00:00:22;8.30;99.90
736;DHT22;352;48.626;9.238;2022-12-29T00:02:49;8.30;99.90
736;DHT22;352;48.626;9.238;2022-12-29T00:05:16;8.30;99.90
736;DHT22;352;48.626;9.238;2022-12-29T00:07:45;8.40;99.90
736;DHT22;352;48.626;9.238;2022-12-29T00:10:14;8.40;99.90
736;DHT22;352;48.626;9.238;2022-12-29T00:15:26;8.30;99.90
736;DHT22;352;48.626;9.238;2022-12-29T00:18:08;8.40;99.90
736;DHT22;352;48.626;9.238;2022-12-29T00:20:35;8.50;99.90
736;DHT22;352;48.626;9.238;2022-12-29T00:23:21;8.50;99.90
736;DHT22;352;48.626;9.238;2022-12-29T00:26:13;8.60;99.90
736;DHT22;352;48.626;9.238;2022-12-29T00:29:01;8.50;99.90
736;DHT22;352;48.626;9.238;2022-12-29T00:31:45;8.60;99.90
736;DHT22;352;48.626;9.238;2022-12-29T00:34:29;8.60;99.90
736;DHT22;352;48.626;9.238;2022-12-29T00:37:13;8.60;99.90
736;DHT22;352;48.626;9.238;2022-12-29T00:39:41;8.60;99.90
736;DHT22;352;48.626;9.238;2022-12-29T00:42:25;8.60;99.90
736;DHT22;352;48.626;9.238;2022-12-29T00:45:09;8.60;99.90
736;DHT22;352;48.626;9.238;2022-12-29T00:47:39;8.60;99.90
736;DHT22;352;48.626;9.238;2022-12-29T00:50:07;8.60;99.90
736;DHT22;352;48.626;9.238;2022-12-29T00:52:33;8.60;99.90
736;DHT22;352;48.626;9.238;2022-12-29T00:55:01;8.60;99.90
736;DHT22;352;48.626;9.238;2022-12-29T00:57:27;8.70;99.90
736;DHT22;352;48.626;9.238;2022-12-29T00:59:56;8.70;99.90
736;DHT22;352;48.626;9.238;2022-12-29T01:02:23;8.70;99.90
736;DHT22;352;48.626;9.238;2022-12-29T01:04:50;8.70;99.90
736;DHT22;352;48.626;9.238;2022-12-29T01:07:20;8.80;99.90
736;DHT22;352;48.626;9.238;2022-12-29T01:09:46;8.80;99.90
736;DHT22;352;48.626;9.238;2022-12-29T01:12:34;8.80;99.90
736;DHT22;352;48.626;9.238;2022-12-29T01:15:08;8.80;99.90
736;DHT22;352;48.626;9.238;2022-12-29T01:17:35;8.80;99.90
736;DHT22;352;48.626;9.238;2022-12-29T01:20:05;8.80;99.90
736;DHT22;352;48.626;9.238;2022-12-29T01:22:33;8.80;99.90
736;DHT22;352;48.626;9.238;2022-12-29T01:24:59;8.70;99.90
736;DHT22;352;48.626;9.238;2022-12-29T01:27:26;8.70;99.90
736;DHT22;352;48.626;9.238;2022-12-29T01:30:00;8.70;99.90
736;DHT22;352;48.626;9.238;2022-12-29T01:32:29;8.80;99.90
736;DHT22;352;48.626;9.238;2022-12-29T01:34:56;8.90;99.90
736;DHT22;352;48.626;9.238;2022-12-29T01:37:22;8.90;99.90
736;DHT22;352;48.626;9.238;2022-12-29T01:39:49;9.00;99.90
736;DHT22;352;48.626;9.238;2022-12-29T01:42:23;9.00;99.90
736;DHT22;352;48.626;9.238;2022-12-29T01:44:57;9.00;99.90
736;DHT22;352;48.626;9.238;2022-12-29T01:47:32;9.00;99.90
736;DHT22;352;48.626;9.238;2022-12-29T01:50:06;9.10;99.90
736;DHT22;352;48.626;9.238;2022-12-29T01:52:42;9.10;99.90
736;DHT22;352;48.626;9.238;2022-12-29T01:55:12;9.10;99.90
736;DHT22;352;48.626;9.238;2022-12-29T01:57:43;9.20;99.90
736;DHT22;352;48.626;9.238;2022-12-29T02:00:15;9.20;99.90
736;DHT22;352;48.626;9.238;2022-12-29T02:02:44;9.20;99.90
736;DHT22;352;48.626;9.238;2022-12-29T02:05:16;9.30;99.90
736;DHT22;352;48.626;9.238;2022-12-29T02:07:45;9.30;99.90
736;DHT22;352;48.626;9.238;2022-12-29T02:10:13;9.40;99.90
736;DHT22;352;48.626;9.238;2022-12-29T02:12:40;9.40;99.90
736;DHT22;352;48.626;9.238;2022-12-29T02:15:08;9.40;99.90
736;DHT22;352;48.626;9.238;2022-12-29T02:17:55;9.40;99.90
736;DHT22;352;48.626;9.238;2022-12-29T02:20:42;9.40;99.90
736;DHT22;352;48.626;9.238;2022-12-29T02:23:45;9.50;99.90
736;DHT22;352;48.626;9.238;2022-12-29T02:26:36;9.50;99.90
736;DHT22;352;48.626;9.238;2022-12-29T02:29:40;9.60;99.90
736;DHT22;352;48.626;9.238;2022-12-29T02:32:18;9.60;99.90
736;DHT22;352;48.626;9.238;2022-12-29T02:34:52;9.70;99.90
736;DHT22;352;48.626;9.238;2022-12-29T02:37:24;9.70;99.90
736;DHT22;352;48.626;9.238;2022-12-29T02:39:59;9.80;99.90
736;DHT22;352;48.626;9.238;2022-12-29T02:42:32;9.80;99.90
736;DHT22;352;48.626;9.238;2022-12-29T02:45:05;9.90;99.90
736;DHT22;352;48.626;9.238;2022-12-29T02:47:38;9.90;99.90
736;DHT22;352;48.626;9.238;2022-12-29T02:50:10;10.00;99.90
736;DHT22;352;48.626;9.238;2022-12-29T02:52:42;10.10;99.90
736;DHT22;352;48.626;9.238;2022-12-29T02:55:10;10.10;99.90
736;DHT22;352;48.626;9.238;2022-12-29T02:57:37;10.20;99.90
736;DHT22;352;48.626;9.238;2022-12-29T03:00:06;10.20;99.90
736;DHT22;352;48.626;9.238;2022-12-29T03:05:45;10.30;99.90
736;DHT22;352;48.626;9.238;2022-12-29T03:08:22;10.30;99.90
736;DHT22;352;48.626;9.238;2022-12-29T03:10:57;10.40;99.90
736;DHT22;352;48.626;9.238;2022-12-29T03:13:29;10.40;99.90
736;DHT22;352;48.626;9.238;2022-12-29T03:16:20;10.50;99.90
736;DHT22;352;48.626;9.238;2022-12-29T03:18:57;10.50;99.90
736;DHT22;352;48.626;9.238;2022-12-29T03:21:32;10.50;99.90
736;DHT22;352;48.626;9.238;2022-12-29T03:24:31;10.60;99.90
736;DHT22;352;48.626;9.238;2022-12-29T03:27:01;10.60;99.90
736;DHT22;352;48.626;9.238;2022-12-29T03:29:32;10.60;99.90
736;DHT22;352;48.626;9.238;2022-12-29T03:32:00;10.70;99.90
736;DHT22;352;48.626;9.238;2022-12-29T03:34:30;10.70;99.90
736;DHT22;352;48.626;9.238;2022-12-29T03:36:59;10.70;99.90
736;DHT22;352;48.626;9.238;2022-12-29T03:39:27;10.60;99.90
736;DHT22;352;48.626;9.238;2022-12-29T03:41:58;10.60;99.90
736;DHT22;352;48.626;9.238;2022-12-29T03:44:32;10.60;99.90
736;DHT22;352;48.626;9.238;2022-12-29T03:46:59;10.60;99.90
736;DHT22;352;48.626;9.238;2022-12-29T03:49:26;10.60;99.90
736;DHT22;352;48.626;9.238;2022-12-29T03:51:54;10.60;99.90
736;DHT22;352;48.626;9.238;2022-12-29T03:54:21;10.60;99.90
736;DHT22;352;48.626;9.238;2022-12-29T03:56:48;10.60;99.90
736;DHT22;352;48.626;9.238;2022-12-29T03:59:15;10.60;99.90
736;DHT22;352;48.626;9.238;2022-12-29T04:01:41;10.60;99.90
736;DHT22;352;48.626;9.238;2022-12-29T04:04:08;10.60;99.90
736;DHT22;352;48.626;9.238;2022-12-29T04:06:35;10.60;99.90
736;DHT22;352;48.626;9.238;2022-12-29T04:09:03;10.60;99.90
736;DHT22;352;48.626;9.238;2022-12-29T04:11:30;10.60;99.90
736;DHT22;352;48.626;9.238;2022-12-29T04:13:57;10.60;99.90
736;DHT22;352;48.626;9.238;2022-12-29T04:16:23;10.60;99.90
736;DHT22;352;48.626;9.238;2022-12-29T04:18:50;10.70;99.90
736;DHT22;352;48.626;9.238;2022-12-29T04:21:17;10.60;99.90
736;DHT22;352;48.626;9.238;2022-12-29T04:23:43;10.60;99.90
736;DHT22;352;48.626;9.238;2022-12-29T04:26:11;10.60;99.90
736;DHT22;352;48.626;9.238;2022-12-29T04:28:38;10.60;99.90
736;DHT22;352;48.626;9.238;2022-12-29T04:31:05;10.60;99.90
736;DHT22;352;48.626;9.238;2022-12-29T04:33:32;10.60;99.90
736;DHT22;352;48.626;9.238;2022-12-29T04:35:58;10.50;99.90
736;DHT22;352;48.626;9.238;2022-12-29T04:38:25;10.50;99.90
736;DHT22;352;48.626;9.238;2022-12-29T04:40:52;10.50;99.90
736;DHT22;352;48.626;9.238;2022-12-29T04:43:20;10.50;99.90
736;DHT22;352;48.626;9.238;2022-12-29T04:45:47;10.50;99.90
736;DHT22;352;48.626;9.238;2022-12-29T04:48:14;10.50;99.90
736;DHT22;352;48.626;9.238;2022-12-29T04:50:42;10.40;99.90
736;DHT22;352;48.626;9.238;2022-12-29T04:53:09;10.40;99.90
736;DHT22;352;48.626;9.238;2022-12-29T04:55:35;10.40;99.90
736;DHT22;352;48.626;9.238;2022-12-29T04:58:02;10.30;99.90
736;DHT22;352;48.626;9.238;2022-12-29T05:00:30;10.30;99.90
736;DHT22;352;48.626;9.238;2022-12-29T05:02:57;10.30;99.90
736;DHT22;352;48.626;9.238;2022-12-29T05:05:24;10.30;99.90
736;DHT22;352;48.626;9.238;2022-12-29T05:07:51;10.30;99.90
736;DHT22;352;48.626;9.238;2022-12-29T05:10:18;10.30;99.90
736;DHT22;352;48.626;9.238;2022-12-29T05:12:45;10.20;99.90
736;DHT22;352;48.626;9.238;2022-12-29T05:15:11;10.20;99.90
736;DHT22;352;48.626;9.238;2022-12-29T05:17:39;10.20;99.90
736;DHT22;352;48.626;9.238;2022-12-29T05:20:07;10.30;99.90
736;DHT22;352;48.626;9.238;2022-12-29T05:22:34;10.40;99.90
736;DHT22;352;48.626;9.238;2022-12-29T05:25:01;10.40;99.90
736;DHT22;352;48.626;9.238;2022-12-29T05:27:28;10.40;99.90
736;DHT22;352;48.626;9.238;2022-12-29T05:29:54;10.30;99.90
736;DHT22;352;48.626;9.238;2022-12-29T05:32:21;10.30;99.90
736;DHT22;352;48.626;9.238;2022-12-29T05:34:49;10.30;99.90
736;DHT22;352;48.626;9.238;2022-12-29T05:37:16;10.30;99.90
736;DHT22;352;48.626;9.238;2022-12-29T05:39:42;10.30;99.90
736;DHT22;352;48.626;9.238;2022-12-29T05:42:09;10.30;99.90
736;DHT22;352;48.626;9.238;2022-12-29T05:44:36;10.30;99.90
736;DHT22;352;48.626;9.238;2022-12-29T05:47:02;10.30;99.90
736;DHT22;352;48.626;9.238;2022-12-29T05:49:29;10.30;99.90
736;DHT22;352;48.626;9.238;2022-12-29T05:51:57;10.30;99.90
736;DHT22;352;48.626;9.238;2022-12-29T05:54:24;10.40;99.90
736;DHT22;352;48.626;9.238;2022-12-29T05:56:51;10.50;99.90
736;DHT22;352;48.626;9.238;2022-12-29T05:59:17;10.50;99.90
736;DHT22;352;48.626;9.238;2022-12-29T06:01:44;10.50;99.90
736;DHT22;352;48.626;9.238;2022-12-29T06:04:11;10.60;99.90
736;DHT22;352;48.626;9.238;2022-12-29T06:06:38;10.60;99.90
736;DHT22;352;48.626;9.238;2022-12-29T06:09:06;10.70;99.90
736;DHT22;352;48.626;9.238;2022-12-29T06:11:33;10.70;99.90
736;DHT22;352;48.626;9.238;2022-12-29T06:13:59;10.70;99.90
736;DHT22;352;48.626;9.238;2022-12-29T06:16:26;10.70;99.90
736;DHT22;352;48.626;9.238;2022-12-29T06:18:53;10.70;99.90
736;DHT22;352;48.626;9.238;2022-12-29T06:21:19;10.80;99.90
736;DHT22;352;48.626;9.238;2022-12-29T06:23:46;10.90;99.90
736;DHT22;352;48.626;9.238;2022-12-29T06:26:14;11.00;99.90
736;DHT22;352;48.626;9.238;2022-12-29T06:28:41;11.00;99.90
736;DHT22;352;48.626;9.238;2022-12-29T06:31:09;11.00;99.90
736;DHT22;352;48.626;9.238;2022-12-29T06:33:36;11.10;99.90
736;DHT22;352;48.626;9.238;2022-12-29T06:36:03;11.10;99.90
736;DHT22;352;48.626;9.238;2022-12-29T06:38:30;11.10;99.90
736;DHT22;352;48.626;9.238;2022-12-29T06:40:57;11.10;99.90
736;DHT22;352;48.626;9.238;2022-12-29T06:43:25;11.10;99.90
736;DHT22;352;48.626;9.238;2022-12-29T06:45:52;11.10;99.90
736;DHT22;352;48.626;9.238;2022-12-29T06:48:18;11.10;99.90
736;DHT22;352;48.626;9.238;2022-12-29T06:50:45;11.10;99.90
736;DHT22;352;48.626;9.238;2022-12-29T06:53:12;11.10;99.90
736;DHT22;352;48.626;9.238;2022-12-29T06:55:41;11.10;99.90
736;DHT22;352;48.626;9.238;2022-12-29T06:58:08;11.10;99.90
736;DHT22;352;48.626;9.238;2022-12-29T07:00:36;11.20;99.90
736;DHT22;352;48.626;9.238;2022-12-29T07:03:03;11.20;99.90
736;DHT22;352;48.626;9.238;2022-12-29T07:05:30;11.20;99.90
736;DHT22;352;48.626;9.238;2022-12-29T07:07:58;11.20;99.90
736;DHT22;352;48.626;9.238;2022-12-29T07:10:25;11.20;99.90
736;DHT22;352;48.626;9.238;2022-12-29T07:12:52;11.20;99.90
736;DHT22;352;48.626;9.238;2022-12-29T07:15:19;11.10;99.90
736;DHT22;352;48.626;9.238;2022-12-29T07:17:47;11.20;99.90
736;DHT22;352;48.626;9.238;2022-12-29T07:20:14;11.20;99.90
736;DHT22;352;48.626;9.238;2022-12-29T07:22:41;11.20;99.90
736;DHT22;352;48.626;9.238;2022-12-29T07:25:08;11.30;99.90
736;DHT22;352;48.626;9.238;2022-12-29T07:27:35;11.30;99.90
736;DHT22;352;48.626;9.238;2022-12-29T07:30:02;11.30;99.90
736;DHT22;352;48.626;9.238;2022-12-29T07:32:32;11.30;99.90
736;DHT22;352;48.626;9.238;2022-12-29T07:35:00;11.30;99.90
736;DHT22;352;48.626;9.238;2022-12-29T07:37:27;11.30;99.90
736;DHT22;352;48.626;9.238;2022-12-29T07:39:54;11.40;99.90
736;DHT22;352;48.626;9.238;2022-12-29T07:42:20;11.40;99.90
736;DHT22;352;48.626;9.238;2022-12-29T07:44:48;11.40;99.90
736;DHT22;352;48.626;9.238;2022-12-29T07:47:15;11.50;99.90
736;DHT22;352;48.626;9.238;2022-12-29T07:49:42;11.60;99.90
736;DHT22;352;48.626;9.238;2022-12-29T07:52:10;11.60;99.90
736;DHT22;352;48.626;9.238;2022-12-29T07:54:37;11.60;99.90
736;DHT22;352;48.626;9.238;2022-12-29T07:57:03;11.60;99.90
736;DHT22;352;48.626;9.238;2022-12-29T07:59:31;11.70;99.90
736;DHT22;352;48.626;9.238;2022-12-29T08:01:58;11.80;99.90
736;DHT22;352;48.626;9.238;2022-12-29T08:04:24;11.80;99.90
736;DHT22;352;48.626;9.238;2022-12-29T08:06:51;11.90;99.90
736;DHT22;352;48.626;9.238;2022-12-29T08:09:19;11.90;99.90
736;DHT22;352;48.626;9.238;2022-12-29T08:11:46;12.00;99.90
736;DHT22;352;48.626;9.238;2022-12-29T08:14:12;12.10;99.90
736;DHT22;352;48.626;9.238;2022-12-29T08:16:39;12.10;99.90
736;DHT22;352;48.626;9.238;2022-12-29T08:19:06;12.10;99.90
736;DHT22;352;48.626;9.238;2022-12-29T08:21:32;12.20;99.90
736;DHT22;352;48.626;9.238;2022-12-29T08:23:59;12.20;99.90
736;DHT22;352;48.626;9.238;2022-12-29T08:26:27;12.20;99.90
736;DHT22;352;48.626;9.238;2022-12-29T08:28:54;12.20;99.90
736;DHT22;352;48.626;9.238;2022-12-29T08:31:21;12.30;99.90
736;DHT22;352;48.626;9.238;2022-12-29T08:33:48;12.30;99.90
736;DHT22;352;48.626;9.238;2022-12-29T08:36:15;12.40;99.90
736;DHT22;352;48.626;9.238;2022-12-29T08:38:42;12.40;99.90
736;DHT22;352;48.626;9.238;2022-12-29T08:41:08;12.50;99.90
736;DHT22;352;48.626;9.238;2022-12-29T08:43:36;12.50;99.90
736;DHT22;352;48.626;9.238;2022-12-29T08:46:03;12.60;99.90
736;DHT22;352;48.626;9.238;2022-12-29T08:48:30;12.70;99.90
736;DHT22;352;48.626;9.238;2022-12-29T08:50:57;12.70;99.90
736;DHT22;352;48.626;9.238;2022-12-29T08:53:23;12.70;99.90
736;DHT22;352;48.626;9.238;2022-12-29T08:55:56;12.80;99.90
736;DHT22;352;48.626;9.238;2022-12-29T08:58:23;12.80;99.90
736;DHT22;352;48.626;9.238;2022-12-29T09:00:53;12.90;99.90
736;DHT22;352;48.626;9.238;2022-12-29T09:03:20;12.90;99.90
736;DHT22;352;48.626;9.238;2022-12-29T09:05:48;14.10;99.90
736;DHT22;352;48.626;9.238;2022-12-29T09:08:14;12.90;99.90
736;DHT22;352;48.626;9.238;2022-12-29T09:10:41;12.90;99.90
736;DHT22;352;48.626;9.238;2022-12-29T09:13:08;12.90;99.90
736;DHT22;352;48.626;9.238;2022-12-29T09:15:35;12.90;99.90
736;DHT22;352;48.626;9.238;2022-12-29T09:18:03;12.90;99.90
736;DHT22;352;48.626;9.238;2022-12-29T09:20:30;12.90;99.90
736;DHT22;352;48.626;9.238;2022-12-29T09:22:57;12.90;99.90
736;DHT22;352;48.626;9.238;2022-12-29T09:25:24;12.90;99.90
736;DHT22;352;48.626;9.238;2022-12-29T09:27:51;12.90;99.90
736;DHT22;352;48.626;9.238;2022-12-29T09:30:19;12.90;99.90
736;DHT22;352;48.626;9.238;2022-12-29T09:32:46;12.90;99.90
736;DHT22;352;48.626;9.238;2022-12-29T09:35:15;12.90;99.90
736;DHT22;352;48.626;9.238;2022-12-29T09:37:43;12.90;99.90
736;DHT22;352;48.626;9.238;2022-12-29T09:40:22;12.90;99.90
736;DHT22;352;48.626;9.238;2022-12-29T09:43:00;12.90;99.90
736;DHT22;352;48.626;9.238;2022-12-29T09:45:35;13.00;99.90
736;DHT22;352;48.626;9.238;2022-12-29T09:48:04;13.00;99.90
736;DHT22;352;48.626;9.238;2022-12-29T09:50:36;13.10;99.90
736;DHT22;352;48.626;9.238;2022-12-29T09:53:09;13.10;99.90
736;DHT22;352;48.626;9.238;2022-12-29T09:55:41;13.00;99.90
736;DHT22;352;48.626;9.238;2022-12-29T09:58:13;12.40;99.90
736;DHT22;352;48.626;9.238;2022-12-29T10:00:49;13.20;99.90
736;DHT22;352;48.626;9.238;2022-12-29T10:03:18;13.30;99.90
736;DHT22;352;48.626;9.238;2022-12-29T10:05:50;13.30;99.90
736;DHT22;352;48.626;9.238;2022-12-29T10:08:29;13.20;99.90
736;DHT22;352;48.626;9.238;2022-12-29T10:11:03;13.20;99.90
736;DHT22;352;48.626;9.238;2022-12-29T10:13:43;13.10;99.90
736;DHT22;352;48.626;9.238;2022-12-29T10:16:18;13.20;99.90
736;DHT22;352;48.626;9.238;2022-12-29T10:19:00;13.20;99.90
736;DHT22;352;48.626;9.238;2022-12-29T10:21:42;13.20;99.90
736;DHT22;352;48.626;9.238;2022-12-29T10:24:11;13.20;99.90
736;DHT22;352;48.626;9.238;2022-12-29T10:26:40;13.20;99.90
736;DHT22;352;48.626;9.238;2022-12-29T10:29:14;13.30;99.90
736;DHT22;352;48.626;9.238;2022-12-29T10:31:44;13.30;99.90
736;DHT22;352;48.626;9.238;2022-12-29T10:34:21;13.30;99.90
736;DHT22;352;48.626;9.238;2022-12-29T10:36:53;13.30;99.90
736;DHT22;352;48.626;9.238;2022-12-29T10:39:25;13.40;99.90
736;DHT22;352;48.626;9.238;2022-12-29T10:41:57;13.40;99.90
736;DHT22;352;48.626;9.238;2022-12-29T10:44:27;13.40;99.90
736;DHT22;352;48.626;9.238;2022-12-29T10:46:58;13.40;99.90
736;DHT22;352;48.626;9.238;2022-12-29T10:49:26;13.40;99.90
736;DHT22;352;48.626;9.238;2022-12-29T10:51:58;13.40;99.90
736;DHT22;352;48.626;9.238;2022-12-29T10:54:29;13.50;99.90
736;DHT22;352;48.626;9.238;2022-12-29T10:57:01;13.50;99.90
736;DHT22;352;48.626;9.238;2022-12-29T10:59:30;13.60;99.90
736;DHT22;352;48.626;9.238;2022-12-29T11:02:12;13.50;99.90
736;DHT22;352;48.626;9.238;2022-12-29T11:04:46;13.50;99.90
736;DHT22;352;48.626;9.238;2022-12-29T11:07:19;13.50;99.90
736;DHT22;352;48.626;9.238;2022-12-29T11:09:46;13.50;99.90
736;DHT22;352;48.626;9.238;2022-12-29T11:12:22;13.50;99.90
736;DHT22;352;48.626;9.238;2022-12-29T11:15:02;13.60;99.90
736;DHT22;352;48.626;9.238;2022-12-29T11:17:43;13.60;99.90
736;DHT22;352;48.626;9.238;2022-12-29T11:20:30;13.60;99.90
736;DHT22;352;48.626;9.238;2022-12-29T11:22:58;13.60;99.90
736;DHT22;352;48.626;9.238;2022-12-29T11:25:26;13.60;99.90
736;DHT22;352;48.626;9.238;2022-12-29T11:27:57;13.60;99.90
736;DHT22;352;48.626;9.238;2022-12-29T11:30:26;13.70;99.90
736;DHT22;352;48.626;9.238;2022-12-29T11:32:55;13.80;99.90
736;DHT22;352;48.626;9.238;2022-12-29T11:35:34;13.80;99.90
736;DHT22;352;48.626;9.238;2022-12-29T11:38:04;13.80;99.90
736;DHT22;352;48.626;9.238;2022-12-29T11:40:31;13.80;99.90
736;DHT22;352;48.626;9.238;2022-12-29T11:43:01;13.80;99.90
736;DHT22;352;48.626;9.238;2022-12-29T11:45:30;13.80;99.90
736;DHT22;352;48.626;9.238;2022-12-29T11:48:01;14.00;99.90
736;DHT22;352;48.626;9.238;2022-12-29T11:50:35;13.90;99.90
736;DHT22;352;48.626;9.238;2022-12-29T11:53:07;13.90;99.90
736;DHT22;352;48.626;9.238;2022-12-29T11:55:39;14.10;99.90
736;DHT22;352;48.626;9.238;2022-12-29T11:58:06;14.30;99.90
736;DHT22;352;48.626;9.238;2022-12-29T12:00:39;14.40;99.90
736;DHT22;352;48.626;9.238;2022-12-29T12:03:11;14.30;99.90
736;DHT22;352;48.626;9.238;2022-12-29T12:05:43;14.20;99.90
736;DHT22;352;48.626;9.238;2022-12-29T12:08:17;14.10;99.90
736;DHT22;352;48.626;9.238;2022-12-29T12:10:48;14.00;99.90
736;DHT22;352;48.626;9.238;2022-12-29T12:13:23;13.90;99.90
736;DHT22;352;48.626;9.238;2022-12-29T12:15:55;13.80;99.90
736;DHT22;352;48.626;9.238;2022-12-29T12:18:34;13.70;99.90
736;DHT22;352;48.626;9.238;2022-12-29T12:21:12;13.70;99.90
736;DHT22;352;48.626;9.238;2022-12-29T12:23:51;13.60;99.90
736;DHT22;352;48.626;9.238;2022-12-29T12:26:21;13.50;99.90
736;DHT22;352;48.626;9.238;2022-12-29T12:28:52;13.60;99.90
736;DHT22;352;48.626;9.238;2022-12-29T12:31:27;13.60;99.90
736;DHT22;352;48.626;9.238;2022-12-29T12:34:02;13.50;99.90
736;DHT22;352;48.626;9.238;2022-12-29T12:36:50;13.60;99.90
736;DHT22;352;48.626;9.238;2022-12-29T12:39:26;13.70;99.90
736;DHT22;352;48.626;9.238;2022-12-29T12:42:03;13.90;99.90
736;DHT22;352;48.626;9.238;2022-12-29T12:44:38;14.00;99.90
736;DHT22;352;48.626;9.238;2022-12-29T12:47:18;14.10;99.90
736;DHT22;352;48.626;9.238;2022-12-29T12:50:13;14.10;99.90
736;DHT22;352;48.626;9.238;2022-12-29T12:52:56;14.10;99.90
736;DHT22;352;48.626;9.238;2022-12-29T12:55:44;14.10;99.90
736;DHT22;352;48.626;9.238;2022-12-29T12:58:20;14.00;99.90
736;DHT22;352;48.626;9.238;2022-12-29T13:00:59;14.00;99.90
736;DHT22;352;48.626;9.238;2022-12-29T13:03:39;14.00;99.90
736;DHT22;352;48.626;9.238;2022-12-29T13:06:18;14.10;99.90
736;DHT22;352;48.626;9.238;2022-12-29T13:09:00;13.80;99.90
736;DHT22;352;48.626;9.238;2022-12-29T13:11:45;13.70;99.90
736;DHT22;352;48.626;9.238;2022-12-29T13:14:26;13.60;99.90
736;DHT22;352;48.626;9.238;2022-12-29T13:17:02;13.50;99.90
736;DHT22;352;48.626;9.238;2022-12-29T13:19:36;13.40;99.90
736;DHT22;352;48.626;9.238;2022-12-29T13:22:09;13.60;99.90
736;DHT22;352;48.626;9.238;2022-12-29T13:24:47;13.40;99.90
736;DHT22;352;48.626;9.238;2022-12-29T13:27:22;13.40;99.90
736;DHT22;352;48.626;9.238;2022-12-29T13:30:00;13.50;99.90
736;DHT22;352;48.626;9.238;2022-12-29T13:32:36;13.40;99.90
736;DHT22;352;48.626;9.238;2022-12-29T13:35:16;13.40;99.90
736;DHT22;352;48.626;9.238;2022-12-29T13:37:50;13.10;99.90
736;DHT22;352;48.626;9.238;2022-12-29T13:40:21;12.70;99.90
736;DHT22;352;48.626;9.238;2022-12-29T13:42:51;13.30;99.90
736;DHT22;352;48.626;9.238;2022-12-29T13:45:20;13.40;99.90
736;DHT22;352;48.626;9.238;2022-12-29T13:47:52;13.40;99.90
736;DHT22;352;48.626;9.238;2022-12-29T13:50:22;13.50;99.90
736;DHT22;352;48.626;9.238;2022-12-29T13:52:58;13.50;99.90
736;DHT22;352;48.626;9.238;2022-12-29T13:55:32;13.60;99.90
736;DHT22;352;48.626;9.238;2022-12-29T13:58:04;13.60;99.90
736;DHT22;352;48.626;9.238;2022-12-29T14:00:42;13.60;99.90
736;DHT22;352;48.626;9.238;2022-12-29T14:03:24;13.70;99.90
736;DHT22;352;48.626;9.238;2022-12-29T14:06:10;13.60;99.90
736;DHT22;352;48.626;9.238;2022-12-29T14:08:38;13.50;99.90
736;DHT22;352;48.626;9.238;2022-12-29T14:11:09;13.60;99.90
736;DHT22;352;48.626;9.238;2022-12-29T14:13:40;13.60;99.90
736;DHT22;352;48.626;9.238;2022-12-29T14:16:23;13.60;99.90
736;DHT22;352;48.626;9.238;2022-12-29T14:18:51;13.60;99.90
736;DHT22;352;48.626;9.238;2022-12-29T14:46:45;12.90;99.90
736;DHT22;352;48.626;9.238;2022-12-29T14:49:17;12.90;99.90
736;DHT22;352;48.626;9.238;2022-12-29T14:51:50;12.80;99.90
736;DHT22;352;48.626;9.238;2022-12-29T15:00:31;12.80;99.90
736;DHT22;352;48.626;9.238;2022-12-29T15:03:05;12.70;99.90
736;DHT22;352;48.626;9.238;2022-12-29T15:05:37;12.70;99.90
736;DHT22;352;48.626;9.238;2022-12-29T15:11:53;12.50;99.90
736;DHT22;352;48.626;9.238;2022-12-29T15:14:29;12.50;99.90
736;DHT22;352;48.626;9.238;2022-12-29T15:20:26;12.30;99.90
736;DHT22;352;48.626;9.238;2022-12-29T15:23:00;12.30;99.90
736;DHT22;352;48.626;9.238;2022-12-29T15:25:35;12.30;99.90
736;DHT22;352;48.626;9.238;2022-12-29T15:28:12;12.30;99.90
736;DHT22;352;48.626;9.238;2022-12-29T15:30:53;12.20;99.90
736;DHT22;352;48.626;9.238;2022-12-29T15:33:23;12.20;99.90
736;DHT22;352;48.626;9.238;2022-12-29T15:35:56;12.10;99.90
736;DHT22;352;48.626;9.238;2022-12-29T15:38:26;12.20;99.90
736;DHT22;352;48.626;9.238;2022-12-29T15:40:57;12.20;99.90
736;DHT22;352;48.626;9.238;2022-12-29T15:43:42;12.10;99.90
736;DHT22;352;48.626;9.238;2022-12-29T15:46:12;12.20;99.90
736;DHT22;352;48.626;9.238;2022-12-29T15:48:42;12.20;99.90
736;DHT22;352;48.626;9.238;2022-12-29T15:51:27;12.20;99.90
736;DHT22;352;48.626;9.238;2022-12-29T15:53:55;12.20;99.90
736;DHT22;352;48.626;9.238;2022-12-29T15:56:23;12.20;99.90
736;DHT22;352;48.626;9.238;2022-12-29T15:58:51;12.20;99.90
736;DHT22;352;48.626;9.238;2022-12-29T16:01:27;12.20;99.90
736;DHT22;352;48.626;9.238;2022-12-29T16:04:09;12.20;99.90
736;DHT22;352;48.626;9.238;2022-12-29T16:06:39;12.20;99.90
736;DHT22;352;48.626;9.238;2022-12-29T16:09:30;12.10;99.90
736;DHT22;352;48.626;9.238;2022-12-29T16:12:00;12.10;99.90
736;DHT22;352;48.626;9.238;2022-12-29T16:14:32;12.10;99.90
736;DHT22;352;48.626;9.238;2022-12-29T16:17:02;12.20;99.90
736;DHT22;352;48.626;9.238;2022-12-29T16:19:34;12.20;99.90
736;DHT22;352;48.626;9.238;2022-12-29T16:22:09;12.20;99.90
736;DHT22;352;48.626;9.238;2022-12-29T16:24:38;12.20;99.90
736;DHT22;352;48.626;9.238;2022-12-29T16:27:08;12.30;99.90
736;DHT22;352;48.626;9.238;2022-12-29T16:29:36;12.30;99.90
736;DHT22;352;48.626;9.238;2022-12-29T16:32:23;12.30;99.90
736;DHT22;352;48.626;9.238;2022-12-29T16:35:09;12.20;99.90
736;DHT22;352;48.626;9.238;2022-12-29T16:37:38;12.20;99.90
736;DHT22;352;48.626;9.238;2022-12-29T16:40:29;11.90;99.90
736;DHT22;352;48.626;9.238;2022-12-29T16:42:58;12.10;99.90
736;DHT22;352;48.626;9.238;2022-12-29T16:46:16;12.20;99.90
736;DHT22;352;48.626;9.238;2022-12-29T16:48:50;12.20;99.90
736;DHT22;352;48.626;9.238;2022-12-29T16:51:21;12.20;99.90
736;DHT22;352;48.626;9.238;2022-12-29T16:53:51;12.10;99.90
736;DHT22;352;48.626;9.238;2022-12-29T16:56:21;12.10;99.90
736;DHT22;352;48.626;9.238;2022-12-29T16:58:50;12.10;99.90
736;DHT22;352;48.626;9.238;2022-12-29T17:01:19;12.00;99.90
736;DHT22;352;48.626;9.238;2022-12-29T17:03:49;12.10;99.90
736;DHT22;352;48.626;9.238;2022-12-29T17:06:19;12.10;99.90
736;DHT22;352;48.626;9.238;2022-12-29T17:08:47;12.10;99.90
736;DHT22;352;48.626;9.238;2022-12-29T17:11:33;12.20;99.90
736;DHT22;352;48.626;9.238;2022-12-29T17:14:21;12.10;99.90
736;DHT22;352;48.626;9.238;2022-12-29T17:16:49;12.10;99.90
736;DHT22;352;48.626;9.238;2022-12-29T17:19:17;12.10;99.90
736;DHT22;352;48.626;9.238;2022-12-29T17:21:44;12.10;99.90
736;DHT22;352;48.626;9.238;2022-12-29T17:24:15;12.10;99.90
736;DHT22;352;48.626;9.238;2022-12-29T17:26:44;12.00;99.90
736;DHT22;352;48.626;9.238;2022-12-29T17:29:17;11.90;99.90
736;DHT22;352;48.626;9.238;2022-12-29T17:31:45;11.80;99.90
736;DHT22;352;48.626;9.238;2022-12-29T17:34:12;11.80;99.90
736;DHT22;352;48.626;9.238;2022-12-29T17:36:39;11.80;99.90
736;DHT22;352;48.626;9.238;2022-12-29T17:39:07;11.80;99.90
736;DHT22;352;48.626;9.238;2022-12-29T17:41:35;11.80;99.90
736;DHT22;352;48.626;9.238;2022-12-29T17:44:04;11.80;99.90
736;DHT22;352;48.626;9.238;2022-12-29T17:46:31;11.80;99.90
736;DHT22;352;48.626;9.238;2022-12-29T17:48:57;11.80;99.90